sensor_id;sensor_type;location;lat;lon;timestamp;P1;durP1;ratioP1;P2;durP2;ratioP2
25091;SDS011;13082;52.374;4.946;2022-07-29T00:01:48;1.73;;;1.00;;
25091;SDS011;13082;52.374;4.946;2022-07-29T00:04:14;2.80;;;0.87;;
25091;SDS011;13082;52.374;4.946;2022-07-29T00:06:40;3.03;;;1.00;;
25091;SDS011;13082;52.374;4.946;2022-07-29T00:09:06;1.50;;;0.73;;
25091;SDS011;13082;52.374;4.946;2022-07-29T00:11:32;2.17;;;1.10;;
25091;SDS011;13082;52.374;4.946;2022-07-29T00:13:57;3.07;;;0.83;;
25091;SDS011;13082;52.374;4.946;2022-07-29T00:16:23;1.83;;;0.83;;
25091;SDS011;13082;52.374;4.946;2022-07-29T00:18:49;2.40;;;0.80;;
25091;SDS011;13082;52.374;4.946;2022-07-29T00:21:14;2.10;;;0.90;;
25091;SDS011;13082;52.374;4.946;2022-07-29T00:23:40;1.40;;;0.77;;
25091;SDS011;13082;52.374;4.946;2022-07-29T00:26:05;1.13;;;1.00;;
25091;SDS011;13082;52.374;4.946;2022-07-29T00:28:31;0.80;;;0.80;;
25091;SDS011;13082;52.374;4.946;2022-07-29T00:30:57;2.10;;;1.07;;
25091;SDS011;13082;52.374;4.946;2022-07-29T00:33:22;3.40;;;0.80;;
25091;SDS011;13082;52.374;4.946;2022-07-29T00:35:48;0.97;;;0.90;;
25091;SDS011;13082;52.374;4.946;2022-07-29T00:38:15;3.90;;;1.00;;
25091;SDS011;13082;52.374;4.946;2022-07-29T00:40:42;1.43;;;1.13;;
25091;SDS011;13082;52.374;4.946;2022-07-29T00:43:09;1.53;;;0.90;;
25091;SDS011;13082;52.374;4.946;2022-07-29T00:45:35;1.43;;;0.80;;
25091;SDS011;13082;52.374;4.946;2022-07-29T00:48:02;1.33;;;0.90;;
25091;SDS011;13082;52.374;4.946;2022-07-29T00:50:29;0.80;;;0.80;;
25091;SDS011;13082;52.374;4.946;2022-07-29T00:52:56;1.73;;;1.10;;
25091;SDS011;13082;52.374;4.946;2022-07-29T00:55:22;1.93;;;0.93;;
25091;SDS011;13082;52.374;4.946;2022-07-29T00:57:47;3.90;;;1.07;;
25091;SDS011;13082;52.374;4.946;2022-07-29T01:00:16;2.10;;;0.90;;
25091;SDS011;13082;52.374;4.946;2022-07-29T01:02:52;1.30;;;0.87;;
25091;SDS011;13082;52.374;4.946;2022-07-29T01:05:19;2.87;;;1.17;;
25091;SDS011;13082;52.374;4.946;2022-07-29T01:07:46;1.77;;;1.20;;
25091;SDS011;13082;52.374;4.946;2022-07-29T01:10:14;2.25;;;0.90;;
25091;SDS011;13082;52.374;4.946;2022-07-29T01:12:40;0.80;;;0.80;;
25091;SDS011;13082;52.374;4.946;2022-07-29T01:15:09;1.73;;;1.10;;
25091;SDS011;13082;52.374;4.946;2022-07-29T01:20:17;1.00;;;0.95;;
25091;SDS011;13082;52.374;4.946;2022-07-29T01:31:19;2.70;;;1.30;;
25091;SDS011;13082;52.374;4.946;2022-07-29T01:33:50;3.03;;;1.13;;
25091;SDS011;13082;52.374;4.946;2022-07-29T01:36:23;1.90;;;1.20;;
25091;SDS011;13082;52.374;4.946;2022-07-29T01:39:05;1.43;;;1.20;;
25091;SDS011;13082;52.374;4.946;2022-07-29T01:41:36;1.60;;;1.13;;
25091;SDS011;13082;52.374;4.946;2022-07-29T01:44:26;2.27;;;1.20;;
25091;SDS011;13082;52.374;4.946;2022-07-29T01:46:57;1.73;;;1.30;;
25091;SDS011;13082;52.374;4.946;2022-07-29T01:49:26;2.93;;;1.27;;
25091;SDS011;13082;52.374;4.946;2022-07-29T01:52:01;3.20;;;1.23;;
25091;SDS011;13082;52.374;4.946;2022-07-29T01:54:35;3.30;;;1.30;;
25091;SDS011;13082;52.374;4.946;2022-07-29T01:57:04;3.70;;;1.47;;
25091;SDS011;13082;52.374;4.946;2022-07-29T01:59:33;3.20;;;1.37;;
25091;SDS011;13082;52.374;4.946;2022-07-29T02:02:03;2.33;;;1.47;;
25091;SDS011;13082;52.374;4.946;2022-07-29T02:04:33;1.77;;;1.20;;
25091;SDS011;13082;52.374;4.946;2022-07-29T02:07:02;3.27;;;1.17;;
25091;SDS011;13082;52.374;4.946;2022-07-29T02:09:31;1.57;;;1.30;;
25091;SDS011;13082;52.374;4.946;2022-07-29T02:11:59;1.60;;;1.50;;
25091;SDS011;13082;52.374;4.946;2022-07-29T02:14:27;1.30;;;1.20;;
25091;SDS011;13082;52.374;4.946;2022-07-29T02:16:56;2.53;;;1.70;;
25091;SDS011;13082;52.374;4.946;2022-07-29T02:19:25;1.93;;;1.40;;
25091;SDS011;13082;52.374;4.946;2022-07-29T02:21:53;1.30;;;1.20;;
25091;SDS011;13082;52.374;4.946;2022-07-29T02:24:22;4.77;;;1.40;;
25091;SDS011;13082;52.374;4.946;2022-07-29T02:26:49;2.40;;;1.27;;
25091;SDS011;13082;52.374;4.946;2022-07-29T02:29:16;1.23;;;1.13;;
25091;SDS011;13082;52.374;4.946;2022-07-29T02:31:44;2.47;;;1.43;;
25091;SDS011;13082;52.374;4.946;2022-07-29T02:34:13;3.07;;;1.40;;
25091;SDS011;13082;52.374;4.946;2022-07-29T02:36:40;2.90;;;1.20;;
25091;SDS011;13082;52.374;4.946;2022-07-29T02:39:08;3.43;;;1.60;;
25091;SDS011;13082;52.374;4.946;2022-07-29T02:41:43;4.93;;;1.77;;
25091;SDS011;13082;52.374;4.946;2022-07-29T02:44:15;3.17;;;1.30;;
25091;SDS011;13082;52.374;4.946;2022-07-29T02:52:03;1.27;;;0.90;;
25091;SDS011;13082;52.374;4.946;2022-07-29T02:54:41;3.33;;;1.30;;
25091;SDS011;13082;52.374;4.946;2022-07-29T02:57:20;1.67;;;1.10;;
25091;SDS011;13082;52.374;4.946;2022-07-29T02:59:52;1.23;;;1.13;;
25091;SDS011;13082;52.374;4.946;2022-07-29T03:02:22;2.50;;;1.40;;
25091;SDS011;13082;52.374;4.946;2022-07-29T03:04:49;4.50;;;1.10;;
25091;SDS011;13082;52.374;4.946;2022-07-29T03:07:17;1.77;;;1.10;;
25091;SDS011;13082;52.374;4.946;2022-07-29T03:09:43;2.60;;;1.10;;
25091;SDS011;13082;52.374;4.946;2022-07-29T03:12:10;1.23;;;1.13;;
25091;SDS011;13082;52.374;4.946;2022-07-29T03:14:36;1.67;;;1.23;;
25091;SDS011;13082;52.374;4.946;2022-07-29T03:17:02;2.40;;;0.90;;
25091;SDS011;13082;52.374;4.946;2022-07-29T03:19:29;1.70;;;1.20;;
25091;SDS011;13082;52.374;4.946;2022-07-29T03:21:56;1.43;;;0.90;;
25091;SDS011;13082;52.374;4.946;2022-07-29T03:24:32;1.50;;;1.30;;
25091;SDS011;13082;52.374;4.946;2022-07-29T03:26:59;4.00;;;1.20;;
25091;SDS011;13082;52.374;4.946;2022-07-29T03:29:25;2.43;;;1.43;;
25091;SDS011;13082;52.374;4.946;2022-07-29T03:31:51;2.70;;;1.13;;
25091;SDS011;13082;52.374;4.946;2022-07-29T03:34:17;3.13;;;1.20;;
25091;SDS011;13082;52.374;4.946;2022-07-29T03:36:43;1.70;;;1.10;;
25091;SDS011;13082;52.374;4.946;2022-07-29T03:39:09;1.83;;;1.10;;
25091;SDS011;13082;52.374;4.946;2022-07-29T03:41:37;1.70;;;1.37;;
25091;SDS011;13082;52.374;4.946;2022-07-29T03:44:05;2.47;;;1.17;;
25091;SDS011;13082;52.374;4.946;2022-07-29T03:46:32;1.33;;;0.80;;
25091;SDS011;13082;52.374;4.946;2022-07-29T03:49:00;1.57;;;1.37;;
25091;SDS011;13082;52.374;4.946;2022-07-29T03:51:29;1.77;;;1.30;;
25091;SDS011;13082;52.374;4.946;2022-07-29T03:53:55;2.57;;;1.30;;
25091;SDS011;13082;52.374;4.946;2022-07-29T03:56:22;4.90;;;1.30;;
25091;SDS011;13082;52.374;4.946;2022-07-29T03:58:50;3.20;;;1.20;;
25091;SDS011;13082;52.374;4.946;2022-07-29T04:01:17;1.40;;;1.30;;
25091;SDS011;13082;52.374;4.946;2022-07-29T04:03:45;3.03;;;1.47;;
25091;SDS011;13082;52.374;4.946;2022-07-29T04:06:11;3.90;;;1.00;;
25091;SDS011;13082;52.374;4.946;2022-07-29T04:08:37;4.70;;;1.40;;
25091;SDS011;13082;52.374;4.946;2022-07-29T04:11:03;2.73;;;1.40;;
25091;SDS011;13082;52.374;4.946;2022-07-29T04:13:29;2.17;;;1.40;;
25091;SDS011;13082;52.374;4.946;2022-07-29T04:15:56;3.40;;;1.27;;
25091;SDS011;13082;52.374;4.946;2022-07-29T04:18:21;2.33;;;1.53;;
25091;SDS011;13082;52.374;4.946;2022-07-29T04:20:47;2.10;;;1.13;;
25091;SDS011;13082;52.374;4.946;2022-07-29T04:23:13;2.37;;;1.40;;
25091;SDS011;13082;52.374;4.946;2022-07-29T04:25:39;1.67;;;1.30;;
25091;SDS011;13082;52.374;4.946;2022-07-29T04:28:06;2.40;;;1.10;;
25091;SDS011;13082;52.374;4.946;2022-07-29T04:30:32;2.00;;;1.13;;
25091;SDS011;13082;52.374;4.946;2022-07-29T04:32:59;2.07;;;1.13;;
25091;SDS011;13082;52.374;4.946;2022-07-29T04:35:29;2.20;;;1.10;;
25091;SDS011;13082;52.374;4.946;2022-07-29T04:37:58;1.33;;;0.80;;
25091;SDS011;13082;52.374;4.946;2022-07-29T04:40:23;2.70;;;1.10;;
25091;SDS011;13082;52.374;4.946;2022-07-29T04:42:49;6.30;;;1.67;;
25091;SDS011;13082;52.374;4.946;2022-07-29T04:45:15;2.37;;;1.03;;
25091;SDS011;13082;52.374;4.946;2022-07-29T04:47:41;3.10;;;0.90;;
25091;SDS011;13082;52.374;4.946;2022-07-29T04:50:07;3.00;;;1.03;;
25091;SDS011;13082;52.374;4.946;2022-07-29T04:52:33;1.57;;;1.47;;
25091;SDS011;13082;52.374;4.946;2022-07-29T04:55:00;7.47;;;1.40;;
25091;SDS011;13082;52.374;4.946;2022-07-29T04:57:26;3.67;;;1.30;;
25091;SDS011;13082;52.374;4.946;2022-07-29T04:59:52;2.80;;;1.40;;
25091;SDS011;13082;52.374;4.946;2022-07-29T05:02:17;1.40;;;1.30;;
25091;SDS011;13082;52.374;4.946;2022-07-29T05:04:43;2.50;;;1.33;;
25091;SDS011;13082;52.374;4.946;2022-07-29T05:07:09;2.13;;;1.27;;
25091;SDS011;13082;52.374;4.946;2022-07-29T05:09:34;6.03;;;1.33;;
25091;SDS011;13082;52.374;4.946;2022-07-29T05:12:00;2.30;;;1.00;;
25091;SDS011;13082;52.374;4.946;2022-07-29T05:14:26;3.10;;;1.10;;
25091;SDS011;13082;52.374;4.946;2022-07-29T05:16:51;1.43;;;1.20;;
25091;SDS011;13082;52.374;4.946;2022-07-29T05:19:18;3.53;;;1.70;;
25091;SDS011;13082;52.374;4.946;2022-07-29T05:21:46;2.40;;;1.20;;
25091;SDS011;13082;52.374;4.946;2022-07-29T05:24:12;1.70;;;1.23;;
25091;SDS011;13082;52.374;4.946;2022-07-29T05:26:38;1.40;;;1.23;;
25091;SDS011;13082;52.374;4.946;2022-07-29T05:29:04;1.70;;;1.00;;
25091;SDS011;13082;52.374;4.946;2022-07-29T05:31:30;2.47;;;1.17;;
25091;SDS011;13082;52.374;4.946;2022-07-29T05:33:56;1.30;;;1.10;;
25091;SDS011;13082;52.374;4.946;2022-07-29T05:36:21;2.40;;;1.27;;
25091;SDS011;13082;52.374;4.946;2022-07-29T05:38:47;2.73;;;1.20;;
25091;SDS011;13082;52.374;4.946;2022-07-29T05:41:12;1.50;;;1.10;;
25091;SDS011;13082;52.374;4.946;2022-07-29T05:43:38;3.27;;;0.90;;
25091;SDS011;13082;52.374;4.946;2022-07-29T05:46:04;1.77;;;1.00;;
25091;SDS011;13082;52.374;4.946;2022-07-29T05:48:29;4.70;;;1.33;;
25091;SDS011;13082;52.374;4.946;2022-07-29T05:50:55;1.50;;;1.23;;
25091;SDS011;13082;52.374;4.946;2022-07-29T05:53:21;2.20;;;1.23;;
25091;SDS011;13082;52.374;4.946;2022-07-29T05:55:47;4.37;;;1.40;;
25091;SDS011;13082;52.374;4.946;2022-07-29T05:58:13;3.13;;;1.50;;
25091;SDS011;13082;52.374;4.946;2022-07-29T06:00:38;3.93;;;1.03;;
25091;SDS011;13082;52.374;4.946;2022-07-29T06:03:04;2.93;;;1.20;;
25091;SDS011;13082;52.374;4.946;2022-07-29T06:05:30;4.37;;;1.20;;
25091;SDS011;13082;52.374;4.946;2022-07-29T06:07:56;2.47;;;1.20;;
25091;SDS011;13082;52.374;4.946;2022-07-29T06:10:21;1.47;;;1.10;;
25091;SDS011;13082;52.374;4.946;2022-07-29T06:12:47;2.73;;;1.20;;
25091;SDS011;13082;52.374;4.946;2022-07-29T06:15:13;1.63;;;1.20;;
25091;SDS011;13082;52.374;4.946;2022-07-29T06:17:38;1.53;;;1.23;;
25091;SDS011;13082;52.374;4.946;2022-07-29T06:20:04;2.67;;;1.30;;
25091;SDS011;13082;52.374;4.946;2022-07-29T06:22:30;1.43;;;1.20;;
25091;SDS011;13082;52.374;4.946;2022-07-29T06:24:55;2.93;;;1.30;;
25091;SDS011;13082;52.374;4.946;2022-07-29T06:27:21;1.83;;;1.20;;
25091;SDS011;13082;52.374;4.946;2022-07-29T06:29:46;1.03;;;0.93;;
25091;SDS011;13082;52.374;4.946;2022-07-29T06:32:12;2.23;;;1.10;;
25091;SDS011;13082;52.374;4.946;2022-07-29T06:34:37;5.50;;;1.80;;
25091;SDS011;13082;52.374;4.946;2022-07-29T06:37:07;3.73;;;1.30;;
25091;SDS011;13082;52.374;4.946;2022-07-29T06:39:36;2.60;;;1.30;;
25091;SDS011;13082;52.374;4.946;2022-07-29T06:42:03;1.83;;;1.10;;
25091;SDS011;13082;52.374;4.946;2022-07-29T06:44:29;2.53;;;1.17;;
25091;SDS011;13082;52.374;4.946;2022-07-29T06:46:55;2.23;;;1.20;;
25091;SDS011;13082;52.374;4.946;2022-07-29T06:49:22;1.57;;;1.20;;
25091;SDS011;13082;52.374;4.946;2022-07-29T06:51:49;2.53;;;1.20;;
25091;SDS011;13082;52.374;4.946;2022-07-29T06:54:14;1.47;;;1.37;;
25091;SDS011;13082;52.374;4.946;2022-07-29T06:56:40;2.65;;;1.00;;
25091;SDS011;13082;52.374;4.946;2022-07-29T06:59:07;3.05;;;1.50;;
25091;SDS011;13082;52.374;4.946;2022-07-29T07:01:34;2.40;;;1.30;;
25091;SDS011;13082;52.374;4.946;2022-07-29T07:04:00;5.43;;;1.67;;
25091;SDS011;13082;52.374;4.946;2022-07-29T07:06:26;2.08;;;1.02;;
25091;SDS011;13082;52.374;4.946;2022-07-29T07:08:52;1.25;;;1.15;;
25091;SDS011;13082;52.374;4.946;2022-07-29T07:11:17;4.55;;;1.60;;
25091;SDS011;13082;52.374;4.946;2022-07-29T07:13:43;2.38;;;1.42;;
25091;SDS011;13082;52.374;4.946;2022-07-29T07:16:09;1.67;;;1.42;;
25091;SDS011;13082;52.374;4.946;2022-07-29T07:18:34;2.13;;;1.20;;
25091;SDS011;13082;52.374;4.946;2022-07-29T07:21:00;2.55;;;1.30;;
25091;SDS011;13082;52.374;4.946;2022-07-29T07:23:26;5.68;;;1.98;;
25091;SDS011;13082;52.374;4.946;2022-07-29T07:25:51;1.45;;;1.17;;
25091;SDS011;13082;52.374;4.946;2022-07-29T07:28:17;3.45;;;1.42;;
25091;SDS011;13082;52.374;4.946;2022-07-29T07:30:44;2.42;;;1.35;;
25091;SDS011;13082;52.374;4.946;2022-07-29T07:33:10;1.80;;;1.38;;
25091;SDS011;13082;52.374;4.946;2022-07-29T07:35:35;1.58;;;1.20;;
25091;SDS011;13082;52.374;4.946;2022-07-29T07:38:01;2.25;;;1.17;;
25091;SDS011;13082;52.374;4.946;2022-07-29T07:40:27;1.92;;;1.27;;
25091;SDS011;13082;52.374;4.946;2022-07-29T07:42:52;2.03;;;1.10;;
25091;SDS011;13082;52.374;4.946;2022-07-29T07:45:18;3.78;;;1.33;;
25091;SDS011;13082;52.374;4.946;2022-07-29T07:47:43;1.83;;;1.70;;
25091;SDS011;13082;52.374;4.946;2022-07-29T07:50:10;2.35;;;1.50;;
25091;SDS011;13082;52.374;4.946;2022-07-29T07:52:46;5.65;;;1.60;;
25091;SDS011;13082;52.374;4.946;2022-07-29T07:55:13;4.38;;;1.48;;
25091;SDS011;13082;52.374;4.946;2022-07-29T07:57:39;1.60;;;1.50;;
25091;SDS011;13082;52.374;4.946;2022-07-29T08:00:05;2.90;;;1.80;;
25091;SDS011;13082;52.374;4.946;2022-07-29T08:02:31;3.20;;;1.35;;
25091;SDS011;13082;52.374;4.946;2022-07-29T08:04:57;1.70;;;1.45;;
25091;SDS011;13082;52.374;4.946;2022-07-29T08:07:24;3.75;;;1.50;;
25091;SDS011;13082;52.374;4.946;2022-07-29T08:09:49;5.15;;;1.63;;
25091;SDS011;13082;52.374;4.946;2022-07-29T08:12:15;1.65;;;1.55;;
25091;SDS011;13082;52.374;4.946;2022-07-29T08:14:41;1.60;;;1.50;;
25091;SDS011;13082;52.374;4.946;2022-07-29T08:17:06;2.15;;;1.58;;
25091;SDS011;13082;52.374;4.946;2022-07-29T08:19:32;2.50;;;1.60;;
25091;SDS011;13082;52.374;4.946;2022-07-29T08:21:57;2.38;;;1.60;;
25091;SDS011;13082;52.374;4.946;2022-07-29T08:24:23;2.67;;;1.55;;
25091;SDS011;13082;52.374;4.946;2022-07-29T08:27:07;2.55;;;1.38;;
25091;SDS011;13082;52.374;4.946;2022-07-29T08:29:33;2.42;;;1.30;;
25091;SDS011;13082;52.374;4.946;2022-07-29T08:31:59;1.60;;;1.40;;
25091;SDS011;13082;52.374;4.946;2022-07-29T08:34:25;3.25;;;2.08;;
25091;SDS011;13082;52.374;4.946;2022-07-29T08:36:50;1.40;;;1.30;;
25091;SDS011;13082;52.374;4.946;2022-07-29T08:39:16;2.53;;;1.67;;
25091;SDS011;13082;52.374;4.946;2022-07-29T08:41:42;2.33;;;1.50;;
25091;SDS011;13082;52.374;4.946;2022-07-29T08:44:08;5.78;;;1.60;;
25091;SDS011;13082;52.374;4.946;2022-07-29T08:46:36;6.20;;;2.00;;
25091;SDS011;13082;52.374;4.946;2022-07-29T08:49:03;5.43;;;1.40;;
25091;SDS011;13082;52.374;4.946;2022-07-29T08:51:29;6.05;;;1.88;;
25091;SDS011;13082;52.374;4.946;2022-07-29T08:53:58;4.28;;;2.20;;
25091;SDS011;13082;52.374;4.946;2022-07-29T08:56:24;3.42;;;1.70;;
25091;SDS011;13082;52.374;4.946;2022-07-29T08:58:50;3.80;;;1.70;;
25091;SDS011;13082;52.374;4.946;2022-07-29T09:01:17;3.28;;;2.15;;
25091;SDS011;13082;52.374;4.946;2022-07-29T09:03:46;3.80;;;1.98;;
25091;SDS011;13082;52.374;4.946;2022-07-29T09:06:14;2.30;;;1.90;;
25091;SDS011;13082;52.374;4.946;2022-07-29T09:08:41;2.28;;;1.73;;
25091;SDS011;13082;52.374;4.946;2022-07-29T09:11:07;5.72;;;2.00;;
25091;SDS011;13082;52.374;4.946;2022-07-29T09:13:33;3.30;;;2.00;;
25091;SDS011;13082;52.374;4.946;2022-07-29T09:15:59;4.57;;;2.40;;
25091;SDS011;13082;52.374;4.946;2022-07-29T09:18:39;2.00;;;1.73;;
25091;SDS011;13082;52.374;4.946;2022-07-29T09:21:08;2.25;;;1.88;;
25091;SDS011;13082;52.374;4.946;2022-07-29T09:24:12;3.85;;;1.80;;
25091;SDS011;13082;52.374;4.946;2022-07-29T09:26:39;2.33;;;1.88;;
25091;SDS011;13082;52.374;4.946;2022-07-29T09:29:10;4.60;;;2.50;;
25091;SDS011;13082;52.374;4.946;2022-07-29T09:31:38;3.20;;;1.80;;
25091;SDS011;13082;52.374;4.946;2022-07-29T09:34:06;3.13;;;1.77;;
25091;SDS011;13082;52.374;4.946;2022-07-29T09:36:39;4.10;;;1.70;;
25091;SDS011;13082;52.374;4.946;2022-07-29T09:39:05;4.25;;;1.95;;
25091;SDS011;13082;52.374;4.946;2022-07-29T09:41:43;3.60;;;1.60;;
25091;SDS011;13082;52.374;4.946;2022-07-29T09:44:13;4.28;;;1.80;;
25091;SDS011;13082;52.374;4.946;2022-07-29T09:46:39;2.60;;;1.92;;
25091;SDS011;13082;52.374;4.946;2022-07-29T09:49:16;3.42;;;1.75;;
25091;SDS011;13082;52.374;4.946;2022-07-29T09:51:42;3.00;;;2.00;;
25091;SDS011;13082;52.374;4.946;2022-07-29T09:54:23;5.72;;;1.88;;
25091;SDS011;13082;52.374;4.946;2022-07-29T09:56:53;4.10;;;1.40;;
25091;SDS011;13082;52.374;4.946;2022-07-29T09:59:20;3.42;;;1.63;;
25091;SDS011;13082;52.374;4.946;2022-07-29T10:01:48;2.25;;;1.83;;
25091;SDS011;13082;52.374;4.946;2022-07-29T10:04:15;3.28;;;2.15;;
25091;SDS011;13082;52.374;4.946;2022-07-29T10:06:59;3.00;;;1.60;;
25091;SDS011;13082;52.374;4.946;2022-07-29T10:09:27;2.42;;;1.75;;
25091;SDS011;13082;52.374;4.946;2022-07-29T10:14:48;3.22;;;2.00;;
25091;SDS011;13082;52.374;4.946;2022-07-29T10:17:15;1.77;;;1.55;;
25091;SDS011;13082;52.374;4.946;2022-07-29T10:19:42;4.82;;;1.98;;
25091;SDS011;13082;52.374;4.946;2022-07-29T10:22:08;7.20;;;2.10;;
25091;SDS011;13082;52.374;4.946;2022-07-29T10:24:35;2.53;;;1.60;;
25091;SDS011;13082;52.374;4.946;2022-07-29T10:27:03;3.03;;;1.63;;
25091;SDS011;13082;52.374;4.946;2022-07-29T10:29:30;3.63;;;1.50;;
25091;SDS011;13082;52.374;4.946;2022-07-29T10:37:57;2.05;;;1.58;;
25091;SDS011;13082;52.374;4.946;2022-07-29T10:40:41;2.03;;;1.55;;
25091;SDS011;13082;52.374;4.946;2022-07-29T10:43:29;2.35;;;1.63;;
25091;SDS011;13082;52.374;4.946;2022-07-29T10:46:00;3.70;;;1.48;;
25091;SDS011;13082;52.374;4.946;2022-07-29T10:48:27;2.05;;;1.63;;
25091;SDS011;13082;52.374;4.946;2022-07-29T10:56:28;2.03;;;1.60;;
25091;SDS011;13082;52.374;4.946;2022-07-29T10:59:22;2.80;;;1.67;;
25091;SDS011;13082;52.374;4.946;2022-07-29T11:01:45;4.45;;;1.42;;
25091;SDS011;13082;52.374;4.946;2022-07-29T11:04:16;6.43;;;2.20;;
25091;SDS011;13082;52.374;4.946;2022-07-29T11:09:30;5.80;;;1.98;;
25091;SDS011;13082;52.374;4.946;2022-07-29T11:11:56;6.18;;;2.28;;
25091;SDS011;13082;52.374;4.946;2022-07-29T11:17:19;1.92;;;1.30;;
25091;SDS011;13082;52.374;4.946;2022-07-29T11:19:45;3.00;;;1.23;;
25091;SDS011;13082;52.374;4.946;2022-07-29T11:22:11;2.63;;;1.30;;
25091;SDS011;13082;52.374;4.946;2022-07-29T11:25:13;1.65;;;1.50;;
25091;SDS011;13082;52.374;4.946;2022-07-29T11:27:39;3.80;;;2.03;;
25091;SDS011;13082;52.374;4.946;2022-07-29T11:30:05;4.00;;;2.13;;
25091;SDS011;13082;52.374;4.946;2022-07-29T11:32:35;3.58;;;1.80;;
25091;SDS011;13082;52.374;4.946;2022-07-29T11:35:19;3.13;;;2.20;;
25091;SDS011;13082;52.374;4.946;2022-07-29T11:38:23;3.38;;;2.53;;
25091;SDS011;13082;52.374;4.946;2022-07-29T11:43:52;4.38;;;1.73;;
25091;SDS011;13082;52.374;4.946;2022-07-29T11:49:23;3.58;;;2.53;;
25091;SDS011;13082;52.374;4.946;2022-07-29T11:51:52;3.63;;;2.80;;
25091;SDS011;13082;52.374;4.946;2022-07-29T11:54:26;3.22;;;2.47;;
25091;SDS011;13082;52.374;4.946;2022-07-29T11:56:58;6.05;;;2.53;;
25091;SDS011;13082;52.374;4.946;2022-07-29T11:59:24;4.82;;;2.30;;
25091;SDS011;13082;52.374;4.946;2022-07-29T12:04:23;3.30;;;2.78;;
25091;SDS011;13082;52.374;4.946;2022-07-29T12:06:50;9.18;;;2.67;;
25091;SDS011;13082;52.374;4.946;2022-07-29T12:09:16;7.53;;;3.55;;
25091;SDS011;13082;52.374;4.946;2022-07-29T12:11:43;4.63;;;2.80;;
25091;SDS011;13082;52.374;4.946;2022-07-29T12:14:08;13.13;;;3.08;;
25091;SDS011;13082;52.374;4.946;2022-07-29T12:16:35;5.25;;;2.80;;
25091;SDS011;13082;52.374;4.946;2022-07-29T12:19:01;5.32;;;3.35;;
25091;SDS011;13082;52.374;4.946;2022-07-29T12:21:29;3.80;;;2.47;;
25091;SDS011;13082;52.374;4.946;2022-07-29T12:24:08;7.18;;;3.03;;
25091;SDS011;13082;52.374;4.946;2022-07-29T12:26:33;5.20;;;2.60;;
25091;SDS011;13082;52.374;4.946;2022-07-29T12:28:59;5.25;;;2.78;;
25091;SDS011;13082;52.374;4.946;2022-07-29T12:31:25;7.28;;;2.88;;
25091;SDS011;13082;52.374;4.946;2022-07-29T12:33:54;7.65;;;3.10;;
25091;SDS011;13082;52.374;4.946;2022-07-29T12:36:19;4.15;;;3.00;;
25091;SDS011;13082;52.374;4.946;2022-07-29T12:38:45;4.20;;;3.30;;
25091;SDS011;13082;52.374;4.946;2022-07-29T12:41:11;4.93;;;3.97;;
25091;SDS011;13082;52.374;4.946;2022-07-29T12:43:37;6.88;;;3.10;;
25091;SDS011;13082;52.374;4.946;2022-07-29T12:46:16;5.07;;;3.60;;
25091;SDS011;13082;52.374;4.946;2022-07-29T12:48:42;4.70;;;3.40;;
25091;SDS011;13082;52.374;4.946;2022-07-29T12:51:08;9.40;;;3.35;;
25091;SDS011;13082;52.374;4.946;2022-07-29T12:53:36;4.05;;;2.67;;
25091;SDS011;13082;52.374;4.946;2022-07-29T12:56:04;4.18;;;3.33;;
25091;SDS011;13082;52.374;4.946;2022-07-29T13:03:43;3.75;;;3.00;;
25091;SDS011;13082;52.374;4.946;2022-07-29T13:09:03;5.72;;;3.15;;
25091;SDS011;13082;52.374;4.946;2022-07-29T13:11:29;3.67;;;3.10;;
25091;SDS011;13082;52.374;4.946;2022-07-29T13:13:56;4.72;;;3.40;;
25091;SDS011;13082;52.374;4.946;2022-07-29T13:16:22;7.13;;;3.80;;
25091;SDS011;13082;52.374;4.946;2022-07-29T13:18:47;5.68;;;2.92;;
25091;SDS011;13082;52.374;4.946;2022-07-29T13:21:14;3.83;;;3.20;;
25091;SDS011;13082;52.374;4.946;2022-07-29T13:23:41;4.82;;;3.10;;
25091;SDS011;13082;52.374;4.946;2022-07-29T13:26:07;6.03;;;3.13;;
25091;SDS011;13082;52.374;4.946;2022-07-29T13:28:34;4.82;;;2.85;;
25091;SDS011;13082;52.374;4.946;2022-07-29T13:31:00;6.20;;;3.30;;
25091;SDS011;13082;52.374;4.946;2022-07-29T13:33:26;6.43;;;3.10;;
25091;SDS011;13082;52.374;4.946;2022-07-29T13:35:51;3.35;;;2.83;;
25091;SDS011;13082;52.374;4.946;2022-07-29T13:38:17;5.15;;;2.67;;
25091;SDS011;13082;52.374;4.946;2022-07-29T13:40:43;4.55;;;2.97;;
25091;SDS011;13082;52.374;4.946;2022-07-29T13:43:09;3.75;;;3.10;;
25091;SDS011;13082;52.374;4.946;2022-07-29T13:45:35;3.22;;;2.83;;
25091;SDS011;13082;52.374;4.946;2022-07-29T13:48:00;7.07;;;2.90;;
25091;SDS011;13082;52.374;4.946;2022-07-29T13:50:26;3.75;;;2.53;;
25091;SDS011;13082;52.374;4.946;2022-07-29T13:52:52;10.60;;;3.85;;
25091;SDS011;13082;52.374;4.946;2022-07-29T13:55:18;4.28;;;2.80;;
25091;SDS011;13082;52.374;4.946;2022-07-29T13:57:44;7.25;;;2.80;;
25091;SDS011;13082;52.374;4.946;2022-07-29T14:00:10;3.97;;;2.85;;
25091;SDS011;13082;52.374;4.946;2022-07-29T14:02:36;3.47;;;2.20;;
25091;SDS011;13082;52.374;4.946;2022-07-29T14:05:03;4.13;;;2.75;;
25091;SDS011;13082;52.374;4.946;2022-07-29T14:07:30;4.95;;;3.10;;
25091;SDS011;13082;52.374;4.946;2022-07-29T14:09:55;5.07;;;3.17;;
25091;SDS011;13082;52.374;4.946;2022-07-29T14:12:22;5.78;;;3.17;;
25091;SDS011;13082;52.374;4.946;2022-07-29T14:14:47;6.15;;;2.05;;
25091;SDS011;13082;52.374;4.946;2022-07-29T14:17:14;4.32;;;2.97;;
25091;SDS011;13082;52.374;4.946;2022-07-29T14:19:39;3.47;;;1.88;;
25091;SDS011;13082;52.374;4.946;2022-07-29T14:22:06;4.68;;;2.75;;
25091;SDS011;13082;52.374;4.946;2022-07-29T14:24:32;2.22;;;2.00;;
25091;SDS011;13082;52.374;4.946;2022-07-29T14:26:58;5.50;;;2.15;;
25091;SDS011;13082;52.374;4.946;2022-07-29T14:29:24;3.28;;;2.70;;
25091;SDS011;13082;52.374;4.946;2022-07-29T14:31:50;4.13;;;2.38;;
25091;SDS011;13082;52.374;4.946;2022-07-29T14:34:15;3.03;;;1.88;;
25091;SDS011;13082;52.374;4.946;2022-07-29T14:36:41;6.65;;;3.03;;
25091;SDS011;13082;52.374;4.946;2022-07-29T14:39:07;5.70;;;2.28;;
25091;SDS011;13082;52.374;4.946;2022-07-29T14:41:32;7.57;;;2.78;;
25091;SDS011;13082;52.374;4.946;2022-07-29T14:43:58;4.18;;;2.47;;
25091;SDS011;13082;52.374;4.946;2022-07-29T14:46:27;3.03;;;2.15;;
25091;SDS011;13082;52.374;4.946;2022-07-29T14:48:53;3.45;;;1.73;;
25091;SDS011;13082;52.374;4.946;2022-07-29T14:51:19;5.93;;;1.83;;
25091;SDS011;13082;52.374;4.946;2022-07-29T14:53:44;3.17;;;1.58;;
25091;SDS011;13082;52.374;4.946;2022-07-29T14:56:10;3.47;;;1.80;;
25091;SDS011;13082;52.374;4.946;2022-07-29T14:58:36;8.60;;;1.90;;
25091;SDS011;13082;52.374;4.946;2022-07-29T15:01:02;3.33;;;1.88;;
25091;SDS011;13082;52.374;4.946;2022-07-29T15:03:28;5.60;;;1.85;;
25091;SDS011;13082;52.374;4.946;2022-07-29T15:05:54;3.22;;;1.63;;
25091;SDS011;13082;52.374;4.946;2022-07-29T15:08:19;8.23;;;2.00;;
25091;SDS011;13082;52.374;4.946;2022-07-29T15:10:45;3.35;;;1.88;;
25091;SDS011;13082;52.374;4.946;2022-07-29T15:13:11;2.05;;;1.88;;
25091;SDS011;13082;52.374;4.946;2022-07-29T15:15:36;6.32;;;2.70;;
25091;SDS011;13082;52.374;4.946;2022-07-29T15:18:02;3.58;;;2.30;;
25091;SDS011;13082;52.374;4.946;2022-07-29T15:20:28;2.60;;;1.58;;
25091;SDS011;13082;52.374;4.946;2022-07-29T15:22:54;5.47;;;2.10;;
25091;SDS011;13082;52.374;4.946;2022-07-29T15:25:21;4.25;;;2.65;;
25091;SDS011;13082;52.374;4.946;2022-07-29T15:27:50;3.60;;;2.28;;
25091;SDS011;13082;52.374;4.946;2022-07-29T15:30:16;5.15;;;2.25;;
25091;SDS011;13082;52.374;4.946;2022-07-29T15:32:44;5.10;;;2.88;;
25091;SDS011;13082;52.374;4.946;2022-07-29T15:35:10;4.57;;;2.25;;
25091;SDS011;13082;52.374;4.946;2022-07-29T15:37:36;4.35;;;2.20;;
25091;SDS011;13082;52.374;4.946;2022-07-29T15:40:03;3.35;;;1.92;;
25091;SDS011;13082;52.374;4.946;2022-07-29T15:42:29;5.57;;;1.80;;
25091;SDS011;13082;52.374;4.946;2022-07-29T15:44:55;3.70;;;1.80;;